Indian Springs, Indiana
Current Conditions -  °F | °C
As of 4:55 PM on Thursday 27 Nov 2014 (Local Time) from KDCY Reporting Station
Light Snow Light Snow  
Wind Chill: 20°   Ceiling: 3700
Heat Index: 28°   Visibility: 10mi
Dew Point: 26°   Wind: 8mph
Humidity: 90%   Direction: 290°WNW
Pressure: 30.44"   Gusts: NA
Location:  38.6262°N, 86.7615°W
Report Text: KDCY 272255Z AUTO 29007KT 10SM -SN SCT024 BKN037 OVC043 M02/M03 A3044 RMK AO2 T10201035
Loading
Personal Weather Stations






























Interactive Weather Map New forecast layout! Learn more

10-Day Weather Forecast

Advertisements
Track Severe Weather on mobile